Time;durP1;ratioP1;P1;durP2;ratioP2;P2;SDS_P1;SDS_P2;PMS_P1;PMS_P2;Temp;Humidity;BMP_temperature;BMP_pressure;BME280_temperature;BME280_humidity;BME280_pressure;Samples;Min_cycle;Max_cycle;Signal;HPM_P1;HPM_P2
2022/07/03 00:01:22;;;;;;;0.90;0.65;;;20.60;1.00;;;;;;6077235;23;20033;-93
2022/07/03 00:10:07;;;;;;;2.50;1.35;;;20.50;1.00;;;;;;6021950;23;20029;-91
2022/07/03 00:14:03;;;;;;;0.93;0.60;;;20.40;1.00;;;;;;6037188;23;20070;-89
2022/07/03 00:30:27;;;;;;;;;;;;;;;;;;;;;
2022/07/03 00:39:05;;;;;;;1.98;0.93;;;20.20;1.00;;;;;;5954444;24;20065;-91
2022/07/03 01:26:44;;;;;;;;;;;;;;;;;;;;;
2022/07/03 02:20:31;;;;;;;1.80;0.70;;;19.30;1.00;;;;;;6245971;23;20031;-89
2022/07/03 02:42:33;;;;;;;1.00;0.40;;;19.20;1.00;;;;;;6236278;22;20096;-91
2022/07/03 02:58:03;;;;;;;1.55;0.73;;;19.00;1.00;;;;;;6234696;22;20454;-92
2022/07/03 03:00:44;;;;;;;1.60;0.55;;;19.00;1.00;;;;;;6266944;23;20016;-88
2022/07/03 03:03:26;;;;;;;2.25;0.55;;;19.00;1.00;;;;;;6244705;22;20027;-90
2022/07/03 03:06:02;;;;;;;2.42;0.73;;;19.00;1.00;;;;;;6256664;22;20351;-90
2022/07/03 03:08:55;;;;;;;2.20;0.60;;;19.00;1.00;;;;;;6246985;23;20016;-93
2022/07/03 03:11:43;;;;;;;1.30;0.50;;;18.90;1.00;;;;;;6207106;23;20443;-90
2022/07/03 03:14:26;;;;;;;0.80;0.40;;;18.90;1.00;;;;;;6248350;22;20020;-93
2022/07/03 03:17:02;;;;;;;;;;;18.90;1.00;;;;;;6252067;23;20022;-90
2022/07/03 03:19:48;;;;;;;1.77;0.47;;;18.80;1.00;;;;;;6237515;23;19916;-90
2022/07/03 03:22:42;;;;;;;1.35;0.50;;;18.80;1.00;;;;;;6258656;23;20020;-89
2022/07/03 03:25:27;;;;;;;1.08;0.30;;;18.80;1.00;;;;;;6251526;22;20018;-89
2022/07/03 03:27:59;;;;;;;1.27;0.70;;;18.90;1.00;;;;;;6245846;23;20020;-90
2022/07/03 03:30:40;;;;;;;2.78;0.63;;;18.80;1.00;;;;;;6218557;23;20016;-91
2022/07/03 03:33:18;;;;;;;0.82;0.30;;;18.80;1.00;;;;;;6242348;22;20024;-90
2022/07/03 03:35:48;;;;;;;1.95;0.60;;;18.80;1.00;;;;;;6220626;23;20016;-91
2022/07/03 03:38:16;;;;;;;0.57;0.32;;;18.80;1.00;;;;;;6245306;23;20016;-92
2022/07/03 03:40:52;;;;;;;1.95;0.47;;;18.70;1.00;;;;;;6245423;23;20012;-92
2022/07/03 03:43:28;;;;;;;3.10;0.50;;;18.70;1.00;;;;;;6220829;22;20016;-92
2022/07/03 03:46:08;;;;;;;2.10;0.47;;;18.70;1.00;;;;;;6221981;23;20023;-93
2022/07/03 03:48:42;;;;;;;1.83;0.43;;;18.60;1.00;;;;;;6244103;23;20016;-89
2022/07/03 03:51:19;;;;;;;3.47;0.50;;;18.60;1.00;;;;;;6223024;23;20459;-93
2022/07/03 03:53:49;;;;;;;2.10;0.50;;;18.60;1.00;;;;;;6245535;22;20024;-89
2022/07/03 03:56:26;;;;;;;1.75;0.47;;;18.60;1.00;;;;;;6242139;23;20020;-92
2022/07/03 03:59:01;;;;;;;2.22;1.05;;;18.60;1.00;;;;;;6191571;23;20017;-92
2022/07/03 04:01:34;;;;;;;4.40;0.55;;;18.60;1.00;;;;;;6191645;23;20348;-90
2022/07/03 04:04:05;;;;;;;2.00;0.52;;;18.60;1.00;;;;;;6165812;23;20017;-92
2022/07/03 04:06:39;;;;;;;1.33;0.68;;;18.50;1.00;;;;;;6166964;23;20016;-90
2022/07/03 04:09:28;;;;;;;4.07;1.35;;;18.50;1.00;;;;;;6169837;23;20097;-91
2022/07/03 04:12:03;;;;;;;3.50;0.77;;;18.50;1.00;;;;;;6191341;23;20042;-92
2022/07/03 04:14:39;;;;;;;4.97;1.15;;;18.50;1.00;;;;;;6166231;23;20388;-92
2022/07/03 04:17:15;;;;;;;2.88;1.02;;;18.50;1.00;;;;;;6190451;23;20033;-92
2022/07/03 04:19:44;;;;;;;6.25;0.70;;;18.50;1.00;;;;;;6167184;23;20047;-94
2022/07/03 04:22:12;;;;;;;4.50;0.80;;;18.50;1.00;;;;;;6191588;23;20020;-91
2022/07/03 04:24:42;;;;;;;1.17;0.77;;;18.40;1.00;;;;;;6168115;23;20446;-91
2022/07/03 04:27:12;;;;;;;4.78;0.85;;;18.50;1.00;;;;;;6192000;23;20445;-90
2022/07/03 04:29:47;;;;;;;1.08;0.47;;;18.40;1.00;;;;;;6193189;23;20043;-93
2022/07/03 04:32:56;;;;;;;4.05;0.70;;;18.40;1.00;;;;;;6192444;23;20021;-90
2022/07/03 04:38:53;;;;;;;2.83;0.45;;;18.40;1.00;;;;;;6189050;23;20044;-92
2022/07/03 04:41:49;;;;;;;2.00;0.60;;;18.40;1.00;;;;;;6169993;23;20019;-92
2022/07/03 04:44:40;;;;;;;2.25;0.75;;;18.30;1.00;;;;;;6194901;23;20079;-91
2022/07/03 04:47:18;;;;;;;4.60;1.05;;;18.40;1.00;;;;;;6169920;23;20036;-93
2022/07/03 04:49:57;;;;;;;9.05;1.42;;;18.30;1.00;;;;;;6192542;23;20416;-91
2022/07/03 04:52:46;;;;;;;3.28;1.10;;;18.30;1.00;;;;;;6169832;23;20024;-92
2022/07/03 04:55:20;;;;;;;2.50;0.88;;;18.30;1.00;;;;;;6167943;23;20020;-90
2022/07/03 04:57:53;;;;;;;4.03;0.90;;;18.30;1.00;;;;;;6230550;23;20016;-91
2022/07/03 05:00:26;;;;;;;4.78;0.77;;;18.30;1.00;;;;;;6223475;23;20120;-92
2022/07/03 05:03:02;;;;;;;2.60;0.55;;;18.30;1.00;;;;;;6223626;23;20066;-91
2022/07/03 05:05:53;;;;;;;5.45;1.10;;;18.20;1.00;;;;;;6248700;23;20027;-92
2022/07/03 05:08:33;;;;;;;2.13;0.50;;;18.20;1.00;;;;;;6250307;22;20016;-91
2022/07/03 05:11:39;;;;;;;5.43;1.05;;;18.30;1.00;;;;;;6248568;23;20020;-88
2022/07/03 05:14:19;;;;;;;8.57;1.00;;;18.30;1.00;;;;;;6232811;23;20051;-89
2022/07/03 05:16:53;;;;;;;2.83;1.02;;;18.30;1.00;;;;;;6231951;23;20082;-91
2022/07/03 05:19:33;;;;;;;8.55;1.00;;;18.30;1.00;;;;;;6238395;23;20343;-89
2022/07/03 05:22:17;;;;;;;2.97;0.60;;;18.30;1.00;;;;;;6230420;23;20317;-94
2022/07/03 05:25:08;;;;;;;4.07;1.00;;;18.30;1.00;;;;;;6248339;22;20016;-93
2022/07/03 05:27:52;;;;;;;2.13;0.80;;;18.30;1.00;;;;;;6270185;23;20024;-92
2022/07/03 05:30:28;;;;;;;6.20;1.92;;;18.30;1.00;;;;;;6247875;22;20047;-92
2022/07/03 05:33:05;;;;;;;8.90;1.33;;;18.30;1.00;;;;;;6272450;22;20001;-93
2022/07/03 05:35:35;;;;;;;7.75;0.98;;;18.30;1.00;;;;;;6273572;22;20015;-88
2022/07/03 05:38:13;;;;;;;4.57;0.82;;;18.30;1.00;;;;;;6300681;22;20035;-92
2022/07/03 05:40:57;;;;;;;5.00;0.88;;;18.30;1.00;;;;;;6249338;23;20020;-89
2022/07/03 05:43:35;;;;;;;6.30;1.38;;;18.30;1.00;;;;;;6246592;22;20103;-91
2022/07/03 05:46:11;;;;;;;5.78;1.13;;;18.30;1.00;;;;;;6246984;23;20026;-94
2022/07/03 05:49:16;;;;;;;3.53;1.38;;;18.30;1.00;;;;;;6246883;23;20083;-91
2022/07/03 05:52:04;;;;;;;3.55;1.02;;;18.30;1.00;;;;;;6222373;23;20031;-90
2022/07/03 05:54:49;;;;;;;8.93;1.60;;;18.40;1.00;;;;;;6246965;22;20436;-94
2022/07/03 05:57:24;;;;;;;9.77;2.00;;;18.50;1.00;;;;;;6242405;23;20016;-93
2022/07/03 06:00:12;;;;;;;5.20;1.20;;;18.50;1.00;;;;;;6190433;23;20020;-90
2022/07/03 06:02:56;;;;;;;4.93;1.73;;;18.50;1.00;;;;;;6191449;23;20063;-90
2022/07/03 06:05:32;;;;;;;3.63;0.88;;;18.50;1.00;;;;;;6168407;23;20021;-92
2022/07/03 06:08:23;;;;;;;5.75;1.70;;;18.50;1.00;;;;;;6166884;23;20017;-92
2022/07/03 06:11:00;;;;;;;6.82;1.13;;;18.60;1.00;;;;;;6167701;23;20027;-91
2022/07/03 06:13:41;;;;;;;4.68;1.95;;;18.60;1.00;;;;;;6192763;23;20017;-90
2022/07/03 06:16:28;;;;;;;7.70;0.93;;;18.70;1.00;;;;;;6167246;23;20103;-91
2022/07/03 06:19:09;;;;;;;4.47;1.08;;;18.70;1.00;;;;;;6189984;23;20020;-90
2022/07/03 06:22:08;;;;;;;5.88;1.30;;;18.70;1.00;;;;;;6166537;23;20416;-93
2022/07/03 06:24:35;;;;;;;4.72;0.90;;;18.80;1.00;;;;;;6177893;23;20043;-89
2022/07/03 06:27:03;;;;;;;3.30;0.95;;;18.80;1.00;;;;;;6191057;23;20099;-91
2022/07/03 06:29:35;;;;;;;3.85;0.88;;;18.90;1.00;;;;;;6193544;23;20013;-92
2022/07/03 06:35:55;;;;;;;5.10;0.60;;;18.90;1.00;;;;;;6228227;22;20024;-89
2022/07/03 06:43:19;;;;;;;5.95;1.50;;;19.00;1.00;;;;;;6110834;23;20058;-91
2022/07/03 06:47:02;;;;;;;;;;;;;;;;;;;;;
2022/07/03 06:50:18;;;;;;;5.13;1.17;;;19.10;1.00;;;;;;6193787;23;20028;-90
2022/07/03 06:53:47;;;;;;;5.85;1.00;;;19.10;1.00;;;;;;6190882;23;20023;-91
2022/07/03 06:56:42;;;;;;;1.65;0.75;;;19.20;1.00;;;;;;6182793;23;20020;-90
2022/07/03 06:59:38;;;;;;;4.30;0.75;;;19.10;1.00;;;;;;6168107;23;20087;-90
2022/07/03 07:04:03;;;;;;;5.88;0.90;;;19.20;1.00;;;;;;6203733;23;20035;-94
2022/07/03 07:06:37;;;;;;;3.75;1.33;;;19.20;1.00;;;;;;6074519;23;20038;-90
2022/07/03 07:09:53;;;;;;;;;;;;;;;;;;;;;
2022/07/03 07:12:53;;;;;;;2.83;0.50;;;19.30;1.00;;;;;;6233359;23;20047;-91
2022/07/03 07:16:22;;;;;;;5.65;1.35;;;19.40;1.00;;;;;;6259915;22;20027;-90
2022/07/03 07:19:42;;;;;;;2.83;0.68;;;19.40;1.00;;;;;;6167647;23;20016;-92
2022/07/03 07:22:20;;;;;;;3.15;0.60;;;19.40;1.00;;;;;;6221143;23;20024;-93
2022/07/03 07:30:14;;;;;;;2.28;0.57;;;19.40;1.00;;;;;;6152580;23;20135;-94
2022/07/03 07:33:18;;;;;;;1.73;0.50;;;19.50;1.00;;;;;;6130333;23;20021;-92
2022/07/03 07:36:06;;;;;;;4.03;0.80;;;19.60;1.00;;;;;;6129584;23;20020;-90
2022/07/03 07:56:24;;;;;;;2.50;1.05;;;19.50;1.00;;;;;;6277233;22;20031;-89
2022/07/03 07:59:23;;;;;;;1.65;0.43;;;19.60;1.00;;;;;;6249796;22;20035;-91
2022/07/03 08:07:29;;;;;;;1.95;0.70;;;19.60;1.00;;;;;;6245396;23;20024;-92
2022/07/03 08:10:13;;;;;;;1.15;0.52;;;19.60;1.00;;;;;;6225099;23;20016;-92
2022/07/03 08:12:42;;;;;;;1.30;0.55;;;19.60;1.00;;;;;;6247335;22;20000;-92
2022/07/03 08:15:11;;;;;;;1.90;0.52;;;19.60;1.00;;;;;;6271966;22;20020;-90
2022/07/03 08:17:38;;;;;;;2.92;0.40;;;19.60;1.00;;;;;;6273810;22;20000;-89
2022/07/03 08:20:06;;;;;;;1.00;0.50;;;19.50;1.00;;;;;;6274031;22;20000;-92
2022/07/03 08:22:53;;;;;;;2.13;0.93;;;19.50;1.00;;;;;;6273228;22;20093;-92
2022/07/03 09:06:23;;;;;;;;;;;;;;;;;;;;;
2022/07/03 09:13:46;;;;;;;3.38;0.63;;;20.20;1.00;;;;;;6077559;23;20341;-89
2022/07/03 11:31:10;;;;;;;;;;;;;;;;;;;;;
2022/07/03 11:34:40;;;;;;;1.80;0.40;;;24.30;1.00;;;;;;6215469;23;20008;-90
2022/07/03 11:46:37;;;;;;;0.73;0.40;;;24.40;1.00;;;;;;6215348;23;20116;-90
2022/07/03 11:58:30;;;;;;;1.33;0.63;;;24.80;1.00;;;;;;5979156;24;20020;-90
2022/07/03 12:06:55;;;;;;;;;;;;;;;;;;;;;
2022/07/03 12:23:02;;;;;;;0.43;0.22;;;25.10;1.00;;;;;;5995421;23;20227;-91
2022/07/03 12:41:37;;;;;;;1.30;0.55;;;25.40;1.00;;;;;;6230190;22;20021;-91
2022/07/03 12:48:09;;;;;;;0.63;0.40;;;25.50;1.00;;;;;;6080319;23;20025;-91
2022/07/03 12:50:58;;;;;;;1.88;0.60;;;25.70;1.00;;;;;;6160792;23;20044;-89
2022/07/03 12:53:34;;;;;;;4.72;0.77;;;25.70;1.00;;;;;;6187176;23;20017;-90
2022/07/03 12:56:09;;;;;;;1.10;0.60;;;25.70;1.00;;;;;;6161105;23;20021;-91
2022/07/03 12:59:16;;;;;;;0.75;0.30;;;25.80;1.00;;;;;;6186311;23;20041;-90
2022/07/03 13:02:05;;;;;;;0.95;0.50;;;26.20;1.00;;;;;;6173290;23;20075;-91
2022/07/03 13:04:44;;;;;;;0.68;0.32;;;26.10;1.00;;;;;;6168184;23;20024;-90
2022/07/03 13:08:24;;;;;;;1.02;0.40;;;26.20;1.00;;;;;;6166953;23;20017;-92
2022/07/03 16:02:27;;;;;;;3.92;2.05;;;28.90;1.00;;;;;;6183918;23;20020;-92
2022/07/03 16:05:34;;;;;;;;;;;;;;;;;;;;;
2022/07/03 16:08:27;;;;;;;1.35;0.65;;;29.60;1.00;;;;;;6244528;22;20087;-92
2022/07/03 16:11:09;;;;;;;;;;;;;;;;;;;;;
2022/07/03 17:00:51;;;;;;;1.27;0.50;;;30.50;1.00;;;;;;6192218;23;20099;-89
2022/07/03 17:03:56;;;;;;;1.10;0.50;;;30.60;1.00;;;;;;6215976;23;20016;-88
2022/07/03 17:11:58;;;;;;;1.10;0.38;;;30.00;1.00;;;;;;6124808;23;20016;-89
2022/07/03 17:15:41;;;;;;;0.98;0.55;;;29.70;1.00;;;;;;6080503;23;20022;-90
2022/07/03 17:18:57;;;;;;;1.27;0.70;;;29.30;1.00;;;;;;6169384;23;20016;-91
2022/07/03 17:22:05;;;;;;;;;;;;;;;;;;;;;
2022/07/03 17:29:32;;;;;;;1.75;0.70;;;28.70;1.00;;;;;;6209904;23;20040;-92
2022/07/03 17:32:34;;;;;;;1.98;0.60;;;28.60;1.00;;;;;;6215901;23;20107;-90
2022/07/03 17:35:49;;;;;;;3.53;0.75;;;28.40;1.00;;;;;;6189573;23;20035;-89
2022/07/03 17:39:50;;;;;;;1.60;0.30;;;28.10;1.00;;;;;;6051683;23;20054;-90
2022/07/03 17:55:37;;;;;;;1.35;0.30;;;27.40;1.00;;;;;;6247306;22;20083;-90
2022/07/03 17:59:12;;;;;;;1.50;0.50;;;27.20;1.00;;;;;;6185900;23;20020;-91
2022/07/03 18:01:45;;;;;;;0.82;0.30;;;27.10;1.00;;;;;;6247118;22;20016;-91
2022/07/03 18:04:18;;;;;;;2.60;0.40;;;27.00;1.00;;;;;;6247566;23;20031;-91
2022/07/03 18:07:00;;;;;;;1.25;0.40;;;26.90;1.00;;;;;;6246171;23;20028;-91
2022/07/03 18:09:31;;;;;;;1.13;0.40;;;26.70;1.00;;;;;;6246545;23;20051;-90
2022/07/03 18:12:10;;;;;;;1.38;0.30;;;26.70;1.00;;;;;;6246036;23;20078;-90
2022/07/03 18:15:13;;;;;;;1.90;0.60;;;26.60;1.00;;;;;;6245958;23;20020;-90
2022/07/03 18:17:47;;;;;;;1.38;0.50;;;26.50;1.00;;;;;;6246484;23;20066;-90
2022/07/03 18:20:28;;;;;;;1.15;0.32;;;26.30;1.00;;;;;;6247474;23;20016;-90
2022/07/03 18:23:01;;;;;;;1.15;0.55;;;26.10;1.00;;;;;;6245844;23;20020;-89
2022/07/03 18:29:44;;;;;;;1.75;0.40;;;26.00;1.00;;;;;;6128188;23;20105;-90
2022/07/03 18:32:28;;;;;;;0.82;0.40;;;25.90;1.00;;;;;;6164035;22;20026;-88
2022/07/03 18:35:05;;;;;;;1.58;0.50;;;25.70;1.00;;;;;;6245028;23;20023;-89
2022/07/03 18:37:39;;;;;;;1.23;0.30;;;25.70;1.00;;;;;;6245249;23;20016;-90
2022/07/03 18:44:14;;;;;;;1.50;0.30;;;25.40;1.00;;;;;;6246113;22;20031;-88
2022/07/03 18:46:53;;;;;;;2.17;0.60;;;25.40;1.00;;;;;;6247757;23;20019;-89
2022/07/03 18:49:24;;;;;;;1.52;0.52;;;25.30;1.00;;;;;;6247472;23;20043;-90
2022/07/03 18:52:19;;;;;;;1.13;0.32;;;25.10;1.00;;;;;;6222951;23;20020;-89
2022/07/03 18:55:17;;;;;;;1.42;0.43;;;25.00;1.00;;;;;;6240457;23;20106;-91
2022/07/03 18:57:55;;;;;;;0.73;0.43;;;24.90;1.00;;;;;;6203525;23;20020;-91
2022/07/03 19:00:33;;;;;;;;;;;24.90;1.00;;;;;;6271409;22;20024;-90
2022/07/03 19:03:13;;;;;;;0.93;0.43;;;24.80;1.00;;;;;;6270831;22;19945;-91
2022/07/03 19:05:53;;;;;;;1.77;0.52;;;24.80;1.00;;;;;;6273774;22;20043;-89
2022/07/03 19:08:39;;;;;;;1.52;0.43;;;24.60;1.00;;;;;;6273243;22;20016;-89
2022/07/03 19:11:17;;;;;;;1.27;0.80;;;24.60;1.00;;;;;;6258668;23;20020;-90
2022/07/03 19:14:07;;;;;;;4.30;1.10;;;24.50;1.00;;;;;;6220204;23;20444;-89
2022/07/03 19:16:42;;;;;;;3.22;1.02;;;24.40;1.00;;;;;;6245590;23;20026;-89
2022/07/03 19:19:12;;;;;;;3.22;0.90;;;24.30;1.00;;;;;;6245045;23;20020;-90
2022/07/03 19:21:52;;;;;;;3.72;1.23;;;23.90;1.00;;;;;;6245837;22;20023;-90
2022/07/03 19:24:19;;;;;;;3.55;0.70;;;24.00;1.00;;;;;;6244501;23;20024;-88
2022/07/03 19:26:46;;;;;;;3.03;1.00;;;24.00;1.00;;;;;;6246181;22;20012;-88
2022/07/03 19:29:13;;;;;;;2.63;1.00;;;24.00;1.00;;;;;;6246092;22;20016;-87
2022/07/03 19:31:40;;;;;;;1.45;0.70;;;24.00;1.00;;;;;;6245906;23;20443;-89
2022/07/03 20:40:02;;;;;;;2.28;0.70;;;22.50;1.00;;;;;;6229422;22;20027;-92
2022/07/03 20:42:30;;;;;;;7.32;1.02;;;22.50;1.00;;;;;;6193851;23;20025;-90
2022/07/03 20:47:56;;;;;;;0.77;0.43;;;22.30;1.00;;;;;;6226480;22;20039;-92
2022/07/03 20:50:27;;;;;;;2.17;0.70;;;22.30;1.00;;;;;;6193932;23;20079;-90
2022/07/03 20:53:23;;;;;;;1.30;0.45;;;22.20;1.00;;;;;;6196889;23;20079;-91
2022/07/03 20:55:58;;;;;;;1.02;0.60;;;22.20;1.00;;;;;;6219682;23;20021;-90
2022/07/03 20:58:25;;;;;;;1.63;0.77;;;22.10;1.00;;;;;;6195955;23;20036;-92
2022/07/03 21:00:52;;;;;;;2.92;1.23;;;22.10;1.00;;;;;;6196385;23;20028;-91
2022/07/03 21:03:19;;;;;;;1.85;0.73;;;22.00;1.00;;;;;;6220729;23;20503;-92
2022/07/03 21:05:47;;;;;;;4.15;0.68;;;22.00;1.00;;;;;;6219335;23;20012;-91
2022/07/03 21:08:25;;;;;;;1.15;0.55;;;21.90;1.00;;;;;;6196072;23;20457;-91
2022/07/03 21:14:09;;;;;;;2.33;0.68;;;21.80;1.00;;;;;;6218090;23;20052;-94
2022/07/03 21:17:12;;;;;;;2.90;0.65;;;21.70;1.00;;;;;;6219782;23;20020;-91
2022/07/03 21:20:12;;;;;;;2.15;0.60;;;21.70;1.00;;;;;;6218019;23;20012;-91
2022/07/03 21:22:45;;;;;;;2.88;0.80;;;21.70;1.00;;;;;;6192649;23;20067;-90
2022/07/03 21:25:12;;;;;;;1.45;0.55;;;21.70;1.00;;;;;;6216711;23;20408;-92
2022/07/03 21:27:40;;;;;;;1.58;0.70;;;21.60;1.00;;;;;;6191075;23;20074;-93
2022/07/03 21:30:12;;;;;;;1.88;0.40;;;21.60;1.00;;;;;;6191978;23;20013;-90
2022/07/03 21:32:45;;;;;;;0.80;0.60;;;21.50;1.00;;;;;;6218585;23;20016;-90
2022/07/03 21:35:12;;;;;;;2.17;0.50;;;21.50;1.00;;;;;;6198288;23;20016;-89
2022/07/03 21:37:39;;;;;;;1.55;0.52;;;21.40;1.00;;;;;;6226668;23;20021;-88
2022/07/03 21:40:07;;;;;;;2.55;0.40;;;21.40;1.00;;;;;;6213735;23;20000;-88
2022/07/03 21:42:34;;;;;;;1.83;0.52;;;21.30;1.00;;;;;;6211046;22;20039;-90
2022/07/03 21:45:02;;;;;;;4.72;0.57;;;21.30;1.00;;;;;;6237881;23;20026;-90
2022/07/03 21:47:32;;;;;;;2.50;0.73;;;21.30;1.00;;;;;;6242276;23;20024;-89
2022/07/03 21:50:14;;;;;;;2.30;0.90;;;21.20;1.00;;;;;;6219377;23;20087;-91
2022/07/03 21:52:50;;;;;;;2.70;0.60;;;21.20;1.00;;;;;;6173775;23;20027;-89
2022/07/03 21:55:37;;;;;;;1.50;0.40;;;21.20;1.00;;;;;;6166377;23;20017;-92
2022/07/03 21:58:17;;;;;;;3.50;1.33;;;21.20;1.00;;;;;;6167449;23;20017;-91
2022/07/03 22:00:55;;;;;;;0.80;0.50;;;21.10;1.00;;;;;;6192407;23;20083;-93
2022/07/03 22:03:28;;;;;;;4.80;0.80;;;21.00;1.00;;;;;;6166071;23;20012;-93
2022/07/03 22:06:08;;;;;;;1.05;0.40;;;21.10;1.00;;;;;;6169290;23;20027;-89
2022/07/03 22:08:42;;;;;;;1.38;0.40;;;21.00;1.00;;;;;;6190785;23;20472;-93
2022/07/03 22:11:22;;;;;;;2.17;0.90;;;21.00;1.00;;;;;;6190178;23;20333;-90
2022/07/03 22:13:53;;;;;;;1.63;0.35;;;21.00;1.00;;;;;;6165729;23;20021;-91
2022/07/03 22:16:34;;;;;;;2.65;0.35;;;20.90;1.00;;;;;;6167304;23;20031;-89
2022/07/03 22:19:02;;;;;;;1.25;0.57;;;20.90;1.00;;;;;;6191204;23;20024;-92
2022/07/03 22:21:38;;;;;;;4.38;0.60;;;20.80;1.00;;;;;;6168974;23;20099;-93
2022/07/03 22:24:11;;;;;;;2.00;0.47;;;20.80;1.00;;;;;;6190782;23;20024;-91
2022/07/03 22:26:40;;;;;;;2.45;0.50;;;20.80;1.00;;;;;;6166712;23;20100;-92
2022/07/03 22:29:26;;;;;;;1.00;0.47;;;20.80;1.00;;;;;;6169427;23;20040;-92
2022/07/03 22:32:10;;;;;;;3.08;0.40;;;20.70;1.00;;;;;;6190123;23;20023;-93
2022/07/03 22:34:45;;;;;;;2.25;0.65;;;20.70;1.00;;;;;;6166495;23;20047;-90
2022/07/03 22:37:20;;;;;;;1.10;0.43;;;20.60;1.00;;;;;;6194082;23;20016;-90
2022/07/03 22:39:53;;;;;;;1.73;0.45;;;20.60;1.00;;;;;;6175978;23;20021;-89
2022/07/03 22:42:30;;;;;;;1.33;0.47;;;20.60;1.00;;;;;;6168057;23;20029;-89
2022/07/03 22:45:13;;;;;;;3.50;0.68;;;20.60;1.00;;;;;;6228222;23;20012;-89
2022/07/03 22:48:01;;;;;;;2.40;0.70;;;20.50;1.00;;;;;;6184701;23;20016;-89
2022/07/03 22:51:13;;;;;;;3.28;0.43;;;20.50;1.00;;;;;;6215443;23;20013;-90
2022/07/03 22:58:11;;;;;;;1.00;0.70;;;20.40;1.00;;;;;;6218516;23;20081;-93
2022/07/03 23:05:07;;;;;;;3.47;0.93;;;20.30;1.00;;;;;;6215621;23;20155;-91
2022/07/03 23:08:56;;;;;;;;;;;;;;;;;;;;;
2022/07/03 23:12:46;;;;;;;1.08;0.47;;;20.20;1.00;;;;;;6211194;23;20091;-92
2022/07/03 23:23:28;;;;;;;2.70;0.77;;;20.10;1.00;;;;;;6195726;23;20036;-91
2022/07/03 23:26:41;;;;;;;1.10;0.60;;;20.10;1.00;;;;;;6215542;23;20024;-92
2022/07/03 23:29:57;;;;;;;2.00;1.15;;;20.10;1.00;;;;;;6215137;23;20082;-91
2022/07/03 23:36:27;;;;;;;1.27;0.40;;;20.00;1.00;;;;;;6216902;23;20027;-90
2022/07/03 23:39:26;;;;;;;3.22;0.70;;;20.00;1.00;;;;;;6191172;23;20051;-93
2022/07/03 23:42:49;;;;;;;1.88;0.55;;;20.00;1.00;;;;;;6192333;23;20020;-90
2022/07/03 23:46:12;;;;;;;1.73;0.55;;;19.90;1.00;;;;;;6192424;23;20453;-92
2022/07/03 23:53:01;;;;;;;0.77;0.52;;;19.80;1.00;;;;;;6208656;23;20017;-93
2022/07/03 23:56:24;;;;;;;0.98;0.40;;;19.80;1.00;;;;;;6212307;23;20028;-92
2022/07/03 23:59:31;;;;;;;4.53;0.50;;;19.80;1.00;;;;;;6187512;23;20028;-92
